KLM550 LDPL-LDDU
Flight info
| Callsign | KLM550 |
|---|---|
| Flight time | 0h 43m |
| Altitude | 19000 |
| Route | LOS1R/09 LOS Y88 SAL/N0403F180 Y88 SPL/N0398F170 L607 NERRA |
| Aircraft | B738/M-SDE2E3FGHIRWXY/LB1 |
Departure
| Time | 2026-04-27 14:07 |
|---|---|
| Airport | Pula Airport (LDPL) |
Arrival
| Time | 2026-04-27 14:50 |
|---|---|
| Airport | Dubrovnik Ruđer Bošković Airport (LDDU) |
| Time | Latitude | Longitude | Altitude | Speed | Heading |
|---|---|---|---|---|---|
| 2026-04-27 13:50 | 44.89683 | 13.92385 | 282 ft | 0 kts | 15° |
| 2026-04-27 14:00 | 44.89684 | 13.92385 | 282 ft | 0 kts | 15° |
| 2026-04-27 14:01 | 44.89688 | 13.92388 | 282 ft | 3 kts | 25° |
| 2026-04-27 14:01 | 44.89695 | 13.92401 | 282 ft | 2 kts | 75° |
| 2026-04-27 14:02 | 44.89686 | 13.92420 | 282 ft | 1 kts | 148° |
| 2026-04-27 14:02 | 44.89678 | 13.92427 | 282 ft | 5 kts | 150° |
| 2026-04-27 14:02 | 44.89630 | 13.92444 | 282 ft | 5 kts | 171° |
| 2026-04-27 14:02 | 44.89585 | 13.92452 | 282 ft | 10 kts | 187° |
| 2026-04-27 14:03 | 44.89567 | 13.92339 | 282 ft | 16 kts | 275° |
| 2026-04-27 14:03 | 44.89568 | 13.92190 | 282 ft | 16 kts | 268° |
| 2026-04-27 14:03 | 44.89564 | 13.92003 | 282 ft | 19 kts | 268° |
| 2026-04-27 14:03 | 44.89559 | 13.91837 | 282 ft | 14 kts | 268° |
| 2026-04-27 14:04 | 44.89557 | 13.91721 | 282 ft | 9 kts | 268° |
| 2026-04-27 14:04 | 44.89555 | 13.91582 | 282 ft | 19 kts | 268° |
| 2026-04-27 14:04 | 44.89551 | 13.91401 | 282 ft | 16 kts | 268° |
| 2026-04-27 14:04 | 44.89546 | 13.91212 | 282 ft | 21 kts | 268° |
| 2026-04-27 14:05 | 44.89541 | 13.91030 | 282 ft | 16 kts | 267° |
| 2026-04-27 14:05 | 44.89537 | 13.90898 | 282 ft | 11 kts | 267° |
| 2026-04-27 14:05 | 44.89534 | 13.90809 | 282 ft | 11 kts | 267° |
| 2026-04-27 14:05 | 44.89530 | 13.90695 | 282 ft | 10 kts | 267° |
| 2026-04-27 14:06 | 44.89526 | 13.90568 | 282 ft | 18 kts | 267° |
| 2026-04-27 14:06 | 44.89465 | 13.90437 | 282 ft | 14 kts | 221° |
| 2026-04-27 14:06 | 44.89400 | 13.90380 | 282 ft | 8 kts | 179° |
| 2026-04-27 14:06 | 44.89321 | 13.90388 | 282 ft | 12 kts | 154° |
| 2026-04-27 14:07 | 44.89313 | 13.90510 | 282 ft | 26 kts | 86° |
| 2026-04-27 14:07 | 44.89329 | 13.91129 | 282 ft | 99 kts | 87° |
| 2026-04-27 14:07 | 44.89353 | 13.92400 | 301 ft | 157 kts | 89° |
| 2026-04-27 14:07 | 44.89365 | 13.94008 | 914 ft | 169 kts | 89° |
| 2026-04-27 14:08 | 44.89387 | 13.95656 | 1785 ft | 170 kts | 89° |
| 2026-04-27 14:08 | 44.89441 | 13.97323 | 2555 ft | 172 kts | 86° |
| 2026-04-27 14:08 | 44.89480 | 13.99023 | 3266 ft | 174 kts | 89° |
| 2026-04-27 14:08 | 44.89460 | 14.00765 | 3855 ft | 187 kts | 94° |
| 2026-04-27 14:09 | 44.89079 | 14.02642 | 4144 ft | 214 kts | 118° |
| 2026-04-27 14:09 | 44.88078 | 14.04337 | 4452 ft | 239 kts | 136° |
| 2026-04-27 14:09 | 44.86798 | 14.05967 | 4914 ft | 260 kts | 137° |
| 2026-04-27 14:09 | 44.85428 | 14.07721 | 5565 ft | 273 kts | 137° |
| 2026-04-27 14:10 | 44.84052 | 14.09632 | 6355 ft | 279 kts | 130° |
| 2026-04-27 14:10 | 44.82897 | 14.11804 | 7316 ft | 280 kts | 127° |
| 2026-04-27 14:10 | 44.81739 | 14.14062 | 8068 ft | 286 kts | 127° |
| 2026-04-27 14:10 | 44.80521 | 14.16299 | 8925 ft | 289 kts | 129° |
| 2026-04-27 14:11 | 44.79277 | 14.18545 | 9710 ft | 293 kts | 129° |
| 2026-04-27 14:11 | 44.78013 | 14.20823 | 10452 ft | 300 kts | 129° |
| 2026-04-27 14:11 | 44.76682 | 14.23227 | 10780 ft | 322 kts | 129° |
| 2026-04-27 14:11 | 44.75264 | 14.25790 | 11072 ft | 343 kts | 128° |
| 2026-04-27 14:12 | 44.73778 | 14.28478 | 11348 ft | 362 kts | 128° |
| 2026-04-27 14:12 | 44.72170 | 14.31385 | 11608 ft | 382 kts | 128° |
| 2026-04-27 14:12 | 44.70525 | 14.34360 | 11842 ft | 399 kts | 128° |
| 2026-04-27 14:12 | 44.68797 | 14.37481 | 12310 ft | 407 kts | 128° |
| 2026-04-27 14:13 | 44.67050 | 14.40635 | 12978 ft | 410 kts | 128° |
| 2026-04-27 14:13 | 44.65296 | 14.43807 | 13601 ft | 414 kts | 128° |
| 2026-04-27 14:13 | 44.63511 | 14.47029 | 14163 ft | 419 kts | 128° |
| 2026-04-27 14:13 | 44.61725 | 14.50268 | 14776 ft | 423 kts | 128° |
| 2026-04-27 14:14 | 44.59926 | 14.53574 | 15362 ft | 427 kts | 128° |
| 2026-04-27 14:14 | 44.58109 | 14.56892 | 15918 ft | 431 kts | 127° |
| 2026-04-27 14:14 | 44.56270 | 14.60241 | 16463 ft | 435 kts | 128° |
| 2026-04-27 14:14 | 44.54420 | 14.63601 | 17007 ft | 438 kts | 127° |
| 2026-04-27 14:15 | 44.52568 | 14.66960 | 17503 ft | 442 kts | 127° |
| 2026-04-27 14:15 | 44.50691 | 14.70385 | 17984 ft | 446 kts | 128° |
| 2026-04-27 14:15 | 44.48779 | 14.73837 | 18483 ft | 450 kts | 127° |
| 2026-04-27 14:15 | 44.46849 | 14.77305 | 18942 ft | 454 kts | 128° |
| 2026-04-27 14:16 | 44.44904 | 14.80808 | 19072 ft | 458 kts | 128° |
| 2026-04-27 14:16 | 44.42944 | 14.84321 | 19098 ft | 458 kts | 128° |
| 2026-04-27 14:16 | 44.40987 | 14.87820 | 19098 ft | 457 kts | 128° |
| 2026-04-27 14:16 | 44.39034 | 14.91311 | 19097 ft | 456 kts | 128° |
| 2026-04-27 14:17 | 44.37107 | 14.94754 | 19100 ft | 455 kts | 128° |
| 2026-04-27 14:17 | 44.35137 | 14.98271 | 19102 ft | 455 kts | 128° |
| 2026-04-27 14:17 | 44.33206 | 15.01712 | 19103 ft | 456 kts | 128° |
| 2026-04-27 14:17 | 44.31244 | 15.05213 | 19105 ft | 457 kts | 128° |
| 2026-04-27 14:18 | 44.29288 | 15.08692 | 19107 ft | 455 kts | 128° |
| 2026-04-27 14:18 | 44.27336 | 15.12161 | 19108 ft | 455 kts | 128° |
| 2026-04-27 14:18 | 44.25382 | 15.15629 | 19111 ft | 454 kts | 128° |
| 2026-04-27 14:18 | 44.23427 | 15.19099 | 19110 ft | 454 kts | 128° |
| 2026-04-27 14:19 | 44.21477 | 15.22553 | 19110 ft | 454 kts | 128° |
| 2026-04-27 14:19 | 44.19542 | 15.25979 | 19111 ft | 455 kts | 128° |
| 2026-04-27 14:19 | 44.17587 | 15.29435 | 19111 ft | 455 kts | 128° |
| 2026-04-27 14:19 | 44.15622 | 15.32903 | 19112 ft | 455 kts | 128° |
| 2026-04-27 14:20 | 44.13662 | 15.36358 | 19112 ft | 455 kts | 128° |
| 2026-04-27 14:20 | 44.11699 | 15.39816 | 19110 ft | 455 kts | 128° |
| 2026-04-27 14:20 | 44.09732 | 15.43281 | 19112 ft | 455 kts | 128° |
| 2026-04-27 14:20 | 44.07759 | 15.46751 | 19112 ft | 456 kts | 129° |
| 2026-04-27 14:21 | 44.05792 | 15.50200 | 19112 ft | 455 kts | 129° |
| 2026-04-27 14:21 | 44.03827 | 15.53646 | 19112 ft | 456 kts | 128° |
| 2026-04-27 14:21 | 44.01863 | 15.57096 | 19112 ft | 455 kts | 129° |
| 2026-04-27 14:21 | 43.99915 | 15.60497 | 19112 ft | 455 kts | 129° |
| 2026-04-27 14:22 | 43.97949 | 15.63930 | 19111 ft | 454 kts | 129° |
| 2026-04-27 14:22 | 43.95983 | 15.67358 | 19113 ft | 455 kts | 129° |
| 2026-04-27 14:22 | 43.94005 | 15.70803 | 19112 ft | 455 kts | 129° |
| 2026-04-27 14:22 | 43.92033 | 15.74233 | 19114 ft | 455 kts | 129° |
| 2026-04-27 14:23 | 43.90062 | 15.77665 | 19113 ft | 455 kts | 129° |
| 2026-04-27 14:23 | 43.88093 | 15.81080 | 19112 ft | 455 kts | 129° |
| 2026-04-27 14:23 | 43.86111 | 15.84517 | 19113 ft | 455 kts | 129° |
| 2026-04-27 14:23 | 43.84154 | 15.87908 | 19113 ft | 455 kts | 129° |
| 2026-04-27 14:24 | 43.82161 | 15.91359 | 19114 ft | 455 kts | 129° |
| 2026-04-27 14:24 | 43.80181 | 15.94779 | 19113 ft | 455 kts | 129° |
| 2026-04-27 14:24 | 43.78231 | 15.98151 | 19114 ft | 455 kts | 129° |
| 2026-04-27 14:24 | 43.76223 | 16.01612 | 19113 ft | 455 kts | 129° |
| 2026-04-27 14:25 | 43.74274 | 16.04966 | 19114 ft | 454 kts | 129° |
| 2026-04-27 14:25 | 43.72288 | 16.08382 | 19112 ft | 455 kts | 129° |
| 2026-04-27 14:25 | 43.70301 | 16.11793 | 19116 ft | 456 kts | 129° |
| 2026-04-27 14:25 | 43.68323 | 16.15188 | 19112 ft | 454 kts | 129° |
| 2026-04-27 14:26 | 43.66332 | 16.18595 | 19112 ft | 454 kts | 129° |
| 2026-04-27 14:26 | 43.64342 | 16.21983 | 19112 ft | 454 kts | 129° |
| 2026-04-27 14:26 | 43.62348 | 16.25366 | 19115 ft | 455 kts | 129° |
| 2026-04-27 14:26 | 43.60353 | 16.28747 | 19112 ft | 454 kts | 129° |
| 2026-04-27 14:27 | 43.58388 | 16.32080 | 19112 ft | 454 kts | 129° |
| 2026-04-27 14:27 | 43.56397 | 16.35449 | 19110 ft | 454 kts | 129° |
| 2026-04-27 14:27 | 43.54404 | 16.38817 | 19110 ft | 455 kts | 129° |
| 2026-04-27 14:27 | 43.52410 | 16.42184 | 19109 ft | 454 kts | 129° |
| 2026-04-27 14:28 | 43.50409 | 16.45556 | 19106 ft | 454 kts | 129° |
| 2026-04-27 14:28 | 43.48409 | 16.48922 | 19103 ft | 454 kts | 129° |
| 2026-04-27 14:28 | 43.46408 | 16.52294 | 19098 ft | 453 kts | 129° |
| 2026-04-27 14:28 | 43.44411 | 16.55643 | 19093 ft | 454 kts | 130° |
| 2026-04-27 14:29 | 43.42403 | 16.59010 | 19084 ft | 453 kts | 130° |
| 2026-04-27 14:29 | 43.40410 | 16.62347 | 19077 ft | 453 kts | 130° |
| 2026-04-27 14:29 | 43.38412 | 16.65714 | 19070 ft | 453 kts | 129° |
| 2026-04-27 14:29 | 43.36429 | 16.69070 | 19064 ft | 453 kts | 129° |
| 2026-04-27 14:30 | 43.34466 | 16.72383 | 19060 ft | 453 kts | 129° |
| 2026-04-27 14:30 | 43.32443 | 16.75788 | 19056 ft | 452 kts | 129° |
| 2026-04-27 14:30 | 43.30485 | 16.79070 | 19055 ft | 452 kts | 129° |
| 2026-04-27 14:30 | 43.28493 | 16.82414 | 19055 ft | 452 kts | 130° |
| 2026-04-27 14:31 | 43.26497 | 16.85750 | 18988 ft | 451 kts | 130° |
| 2026-04-27 14:31 | 43.24515 | 16.89065 | 18738 ft | 447 kts | 130° |
| 2026-04-27 14:31 | 43.22550 | 16.92339 | 18487 ft | 444 kts | 130° |
| 2026-04-27 14:31 | 43.20599 | 16.95590 | 18237 ft | 439 kts | 130° |
| 2026-04-27 14:32 | 43.18660 | 16.98818 | 17985 ft | 437 kts | 130° |
| 2026-04-27 14:32 | 43.16754 | 17.01984 | 17739 ft | 436 kts | 130° |
| 2026-04-27 14:32 | 43.14827 | 17.05180 | 17489 ft | 435 kts | 130° |
| 2026-04-27 14:32 | 43.12903 | 17.08371 | 17235 ft | 433 kts | 130° |
| 2026-04-27 14:33 | 43.10999 | 17.11526 | 16987 ft | 430 kts | 130° |
| 2026-04-27 14:33 | 43.09099 | 17.14674 | 16738 ft | 429 kts | 130° |
| 2026-04-27 14:33 | 43.07194 | 17.17818 | 16486 ft | 426 kts | 130° |
| 2026-04-27 14:33 | 43.05306 | 17.20937 | 16235 ft | 425 kts | 130° |
| 2026-04-27 14:34 | 43.03423 | 17.24035 | 15984 ft | 422 kts | 130° |
| 2026-04-27 14:34 | 43.01546 | 17.27118 | 15733 ft | 420 kts | 130° |
| 2026-04-27 14:34 | 42.99711 | 17.30139 | 15486 ft | 418 kts | 130° |
| 2026-04-27 14:34 | 42.97832 | 17.33227 | 15233 ft | 417 kts | 130° |
| 2026-04-27 14:35 | 42.96003 | 17.36221 | 14985 ft | 415 kts | 130° |
| 2026-04-27 14:35 | 42.94163 | 17.39237 | 14641 ft | 413 kts | 130° |
| 2026-04-27 14:35 | 42.92333 | 17.42235 | 14051 ft | 409 kts | 130° |
| 2026-04-27 14:35 | 42.90522 | 17.45201 | 13451 ft | 406 kts | 130° |
| 2026-04-27 14:36 | 42.88720 | 17.48145 | 12874 ft | 402 kts | 130° |
| 2026-04-27 14:36 | 42.86958 | 17.51026 | 12640 ft | 389 kts | 130° |
| 2026-04-27 14:36 | 42.85268 | 17.53784 | 12442 ft | 377 kts | 130° |
| 2026-04-27 14:36 | 42.83590 | 17.56520 | 12242 ft | 365 kts | 130° |
| 2026-04-27 14:37 | 42.82008 | 17.59101 | 12053 ft | 355 kts | 130° |
| 2026-04-27 14:37 | 42.80446 | 17.61646 | 11864 ft | 346 kts | 130° |
| 2026-04-27 14:37 | 42.78924 | 17.64119 | 11678 ft | 337 kts | 130° |
| 2026-04-27 14:37 | 42.77438 | 17.66537 | 11497 ft | 329 kts | 130° |
| 2026-04-27 14:38 | 42.75982 | 17.68900 | 11321 ft | 321 kts | 130° |
| 2026-04-27 14:38 | 42.74582 | 17.71171 | 11152 ft | 314 kts | 130° |
| 2026-04-27 14:38 | 42.73181 | 17.73442 | 10982 ft | 307 kts | 130° |
| 2026-04-27 14:38 | 42.71837 | 17.75618 | 10820 ft | 301 kts | 130° |
| 2026-04-27 14:39 | 42.70527 | 17.77739 | 10662 ft | 294 kts | 130° |
| 2026-04-27 14:39 | 42.69229 | 17.79844 | 10470 ft | 290 kts | 130° |
| 2026-04-27 14:39 | 42.67947 | 17.81939 | 10262 ft | 286 kts | 130° |
| 2026-04-27 14:39 | 42.66684 | 17.83993 | 10098 ft | 280 kts | 130° |
| 2026-04-27 14:40 | 42.65446 | 17.85999 | 9896 ft | 276 kts | 130° |
| 2026-04-27 14:40 | 42.64211 | 17.87992 | 9636 ft | 274 kts | 130° |
| 2026-04-27 14:40 | 42.62992 | 17.89960 | 9375 ft | 272 kts | 130° |
| 2026-04-27 14:40 | 42.61773 | 17.91922 | 9112 ft | 270 kts | 130° |
| 2026-04-27 14:41 | 42.60565 | 17.93862 | 8850 ft | 269 kts | 130° |
| 2026-04-27 14:41 | 42.59360 | 17.95799 | 8586 ft | 267 kts | 130° |
| 2026-04-27 14:41 | 42.58177 | 17.97694 | 8326 ft | 266 kts | 130° |
| 2026-04-27 14:41 | 42.56971 | 17.99625 | 8059 ft | 264 kts | 130° |
| 2026-04-27 14:42 | 42.55802 | 18.01497 | 7798 ft | 263 kts | 130° |
| 2026-04-27 14:42 | 42.54624 | 18.03382 | 7533 ft | 262 kts | 130° |
| 2026-04-27 14:42 | 42.53448 | 18.05264 | 7267 ft | 260 kts | 130° |
| 2026-04-27 14:42 | 42.52284 | 18.07125 | 6996 ft | 259 kts | 130° |
| 2026-04-27 14:43 | 42.51121 | 18.08981 | 6731 ft | 257 kts | 130° |
| 2026-04-27 14:43 | 42.49954 | 18.10845 | 6458 ft | 262 kts | 130° |
| 2026-04-27 14:43 | 42.48778 | 18.12750 | 6185 ft | 265 kts | 128° |
| 2026-04-27 14:43 | 42.47776 | 18.14812 | 5954 ft | 259 kts | 120° |
| 2026-04-27 14:44 | 42.46940 | 18.16932 | 5541 ft | 259 kts | 117° |
| 2026-04-27 14:44 | 42.46123 | 18.19100 | 5192 ft | 255 kts | 117° |
| 2026-04-27 14:44 | 42.45325 | 18.21173 | 5079 ft | 241 kts | 118° |
| 2026-04-27 14:44 | 42.44560 | 18.23132 | 4966 ft | 229 kts | 118° |
| 2026-04-27 14:45 | 42.43823 | 18.25009 | 4665 ft | 225 kts | 118° |
| 2026-04-27 14:45 | 42.43106 | 18.26851 | 4273 ft | 226 kts | 115° |
| 2026-04-27 14:45 | 42.42688 | 18.28849 | 4127 ft | 215 kts | 97° |
| 2026-04-27 14:45 | 42.42760 | 18.30828 | 3891 ft | 215 kts | 74° |
| 2026-04-27 14:46 | 42.43395 | 18.32622 | 3853 ft | 209 kts | 60° |
| 2026-04-27 14:46 | 42.44177 | 18.34251 | 3844 ft | 205 kts | 57° |
| 2026-04-27 14:46 | 42.44969 | 18.35879 | 3582 ft | 207 kts | 58° |
| 2026-04-27 14:46 | 42.45724 | 18.37512 | 3339 ft | 201 kts | 59° |
| 2026-04-27 14:47 | 42.46446 | 18.39095 | 3126 ft | 193 kts | 59° |
| 2026-04-27 14:47 | 42.46936 | 18.40070 | 3017 ft | 189 kts | 47° |
| 2026-04-27 14:47 | 42.48463 | 18.40800 | 2849 ft | 185 kts | 0° |
| 2026-04-27 14:47 | 42.49726 | 18.40495 | 2667 ft | 188 kts | 343° |
| 2026-04-27 14:48 | 42.50871 | 18.39618 | 2406 ft | 191 kts | 322° |
| 2026-04-27 14:48 | 42.52367 | 18.36819 | 1948 ft | 178 kts | 297° |
| 2026-04-27 14:48 | 42.52888 | 18.35340 | 1759 ft | 167 kts | 296° |
| 2026-04-27 14:49 | 42.53396 | 18.33951 | 1527 ft | 161 kts | 296° |
| 2026-04-27 14:49 | 42.53891 | 18.32648 | 1296 ft | 155 kts | 297° |
| 2026-04-27 14:49 | 42.54382 | 18.31365 | 1086 ft | 153 kts | 297° |
| 2026-04-27 14:49 | 42.54847 | 18.30087 | 893 ft | 150 kts | 297° |
| 2026-04-27 14:50 | 42.55321 | 18.28827 | 675 ft | 148 kts | 298° |
| 2026-04-27 14:50 | 42.55820 | 18.27636 | 546 ft | 139 kts | 289° |
| 2026-04-27 14:50 | 42.56213 | 18.26614 | 535 ft | 95 kts | 300° |
| 2026-04-27 14:50 | 42.56412 | 18.26127 | 535 ft | 41 kts | 297° |
| 2026-04-27 14:51 | 42.56512 | 18.25879 | 535 ft | 19 kts | 298° |
| 2026-04-27 14:51 | 42.56564 | 18.25744 | 535 ft | 13 kts | 293° |
| 2026-04-27 14:51 | 42.56546 | 18.25651 | 535 ft | 10 kts | 239° |
| 2026-04-27 14:51 | 42.56530 | 18.25610 | 535 ft | 3 kts | 242° |
| 2026-04-27 14:52 | 42.56512 | 18.25565 | 535 ft | 3 kts | 242° |
| 2026-04-27 14:52 | 42.56491 | 18.25536 | 535 ft | 10 kts | 215° |
| 2026-04-27 14:52 | 42.56440 | 18.25543 | 535 ft | 5 kts | 114° |
| 2026-04-27 14:52 | 42.56421 | 18.25601 | 535 ft | 10 kts | 114° |
| 2026-04-27 14:53 | 42.56383 | 18.25711 | 535 ft | 11 kts | 114° |
| 2026-04-27 14:53 | 42.56365 | 18.25764 | 535 ft | 6 kts | 114° |
| 2026-04-27 14:53 | 42.56342 | 18.25831 | 535 ft | 6 kts | 120° |
| 2026-04-27 14:53 | 42.56328 | 18.25865 | 535 ft | 7 kts | 120° |
| 2026-04-27 14:54 | 42.56297 | 18.25946 | 535 ft | 10 kts | 115° |
| 2026-04-27 14:54 | 42.56270 | 18.26022 | 535 ft | 11 kts | 117° |
| 2026-04-27 14:54 | 42.56220 | 18.26156 | 535 ft | 15 kts | 117° |
| 2026-04-27 14:54 | 42.56195 | 18.26224 | 535 ft | 0 kts | 117° |
| 2026-04-27 14:55 | 42.56179 | 18.26265 | 535 ft | 11 kts | 117° |
| 2026-04-27 14:55 | 42.56152 | 18.26298 | 535 ft | 3 kts | 211° |
| 2026-04-27 14:55 | 42.56124 | 18.26257 | 535 ft | 7 kts | 212° |
| 2026-04-27 14:55 | 42.56089 | 18.26243 | 535 ft | 0 kts | 202° |